Time;durP1;ratioP1;P1;durP2;ratioP2;P2;SDS_P1;SDS_P2;PMS_P1;PMS_P2;Temp;Humidity;BMP_temperature;BMP_pressure;BME280_temperature;BME280_humidity;BME280_pressure;Samples;Min_cycle;Max_cycle;Signal;HPM_P1;HPM_P2
2022/05/16 04:01:51;;;;;;;7.60;4.90;;;15.10;99.90;;;;;;5342855;23;20533;-76
2022/05/16 04:04:18;;;;;;;6.00;4.80;;;15.10;99.90;;;;;;4968759;28;20467;-76
2022/05/16 04:06:45;;;;;;;5.30;4.53;;;15.10;99.90;;;;;;4969348;28;20460;-76
2022/05/16 04:09:12;;;;;;;8.27;4.53;;;15.10;99.90;;;;;;4968959;28;20550;-76
2022/05/16 04:11:38;;;;;;;8.13;4.20;;;15.10;99.90;;;;;;4969169;28;20570;-76
2022/05/16 04:14:05;;;;;;;7.27;3.90;;;15.20;99.90;;;;;;4968989;28;20469;-76
2022/05/16 04:16:32;;;;;;;6.83;5.60;;;15.10;99.90;;;;;;4969248;28;20460;-76
2022/05/16 04:19:00;;;;;;;6.37;4.70;;;15.10;99.90;;;;;;4969563;28;20754;-76
2022/05/16 04:21:27;;;;;;;4.50;4.10;;;15.10;99.90;;;;;;4967613;28;20487;-76
2022/05/16 04:23:54;;;;;;;14.43;5.17;;;15.20;99.90;;;;;;4969283;28;20489;-76
2022/05/16 04:26:21;;;;;;;9.30;5.67;;;15.20;99.90;;;;;;4968552;28;20492;-76
2022/05/16 04:28:47;;;;;;;5.93;5.03;;;15.10;99.90;;;;;;4968936;28;20479;-76
2022/05/16 04:31:14;;;;;;;8.40;4.83;;;15.10;99.90;;;;;;4968946;28;20488;-76
2022/05/16 04:33:41;;;;;;;5.33;4.47;;;15.10;99.90;;;;;;4969412;28;20543;-76
2022/05/16 04:36:10;;;;;;;7.03;5.30;;;15.10;99.90;;;;;;4967786;28;20872;-76
2022/05/16 04:38:36;;;;;;;8.30;5.10;;;15.00;99.90;;;;;;4968787;28;20479;-76
2022/05/16 04:43:49;;;;;;;6.77;4.80;;;15.00;99.90;;;;;;4968745;28;20476;-76
2022/05/16 04:46:15;;;;;;;10.40;4.93;;;15.00;99.90;;;;;;4967968;28;20646;-76
2022/05/16 04:48:43;;;;;;;6.83;4.83;;;15.00;99.90;;;;;;4968528;28;20470;-76
2022/05/16 04:51:12;;;;;;;11.43;4.50;;;15.00;99.90;;;;;;4968382;28;20540;-76
2022/05/16 04:53:39;;;;;;;9.63;4.63;;;15.00;99.90;;;;;;4968868;28;20805;-76
2022/05/16 04:56:06;;;;;;;5.40;4.77;;;15.10;99.90;;;;;;4967551;28;20504;-77
2022/05/16 04:58:34;;;;;;;5.40;4.87;;;15.20;99.90;;;;;;4968408;28;20724;-76
2022/05/16 05:01:00;;;;;;;5.63;5.07;;;15.20;99.90;;;;;;4968305;28;20484;-78
2022/05/16 05:03:28;;;;;;;6.83;4.93;;;15.20;99.90;;;;;;4968528;28;20543;-77
2022/05/16 05:05:54;;;;;;;4.73;4.17;;;15.20;99.90;;;;;;4967492;28;20547;-78
2022/05/16 05:08:23;;;;;;;7.27;5.00;;;15.20;99.90;;;;;;4967975;28;20471;-77
2022/05/16 05:16:23;;;;;;;8.50;4.50;;;15.30;99.90;;;;;;4968044;28;20894;-77
2022/05/16 05:18:50;;;;;;;6.70;4.20;;;15.30;99.90;;;;;;4968529;28;20810;-78
2022/05/16 05:21:17;;;;;;;8.00;4.60;;;15.40;99.90;;;;;;4966065;28;20491;-77
2022/05/16 05:23:45;;;;;;;9.67;5.23;;;15.50;99.90;;;;;;4967001;28;20552;-77
2022/05/16 05:26:12;;;;;;;6.13;4.63;;;15.50;99.90;;;;;;4966549;28;20561;-77
2022/05/16 05:28:40;;;;;;;6.77;4.93;;;15.50;99.90;;;;;;4967052;28;20544;-77
2022/05/16 05:31:11;;;;;;;8.67;5.20;;;15.50;99.90;;;;;;4966734;28;20583;-77
2022/05/16 05:33:38;;;;;;;12.60;5.87;;;15.50;99.90;;;;;;4966325;28;20471;-77
2022/05/16 05:36:09;;;;;;;9.70;6.00;;;15.50;99.90;;;;;;4966621;28;20500;-77
2022/05/16 05:38:37;;;;;;;8.87;5.70;;;15.60;99.90;;;;;;4967158;28;20456;-77
2022/05/16 05:41:05;;;;;;;10.33;5.57;;;15.60;99.90;;;;;;4967968;28;21017;-77
2022/05/16 05:43:33;;;;;;;8.80;5.20;;;15.60;99.90;;;;;;4968124;28;20546;-77
2022/05/16 05:46:00;;;;;;;8.03;5.33;;;15.60;99.90;;;;;;4968578;28;20584;-76
2022/05/16 05:48:28;;;;;;;7.80;5.40;;;15.60;99.90;;;;;;4968082;28;20542;-77
2022/05/16 05:50:54;;;;;;;15.13;5.37;;;15.60;99.90;;;;;;4967819;28;20492;-76
2022/05/16 05:53:21;;;;;;;7.60;4.93;;;15.60;99.90;;;;;;4968757;28;20456;-77
2022/05/16 05:55:48;;;;;;;10.80;5.50;;;15.70;99.90;;;;;;4968349;28;20602;-77
2022/05/16 05:58:17;;;;;;;9.53;5.67;;;15.70;99.90;;;;;;4968386;28;20464;-77
2022/05/16 06:00:45;;;;;;;7.20;5.33;;;15.80;99.90;;;;;;4968227;28;20524;-77
2022/05/16 06:03:12;;;;;;;15.20;5.40;;;15.80;99.90;;;;;;4967965;28;20456;-77
2022/05/16 06:05:39;;;;;;;8.77;5.87;;;15.90;99.90;;;;;;4967237;28;20449;-77
2022/05/16 06:08:06;;;;;;;6.87;5.37;;;16.00;99.90;;;;;;4967670;28;20468;-77
2022/05/16 06:10:33;;;;;;;11.53;6.17;;;16.00;99.90;;;;;;4968210;28;20563;-77
2022/05/16 06:13:01;;;;;;;7.90;5.97;;;16.10;99.90;;;;;;4968023;28;20464;-77
2022/05/16 06:15:29;;;;;;;6.70;5.83;;;16.10;99.90;;;;;;4967395;28;21016;-77
2022/05/16 06:17:56;;;;;;;7.83;6.07;;;16.20;99.90;;;;;;4968510;28;20556;-77
2022/05/16 06:20:23;;;;;;;8.17;5.80;;;16.20;99.90;;;;;;4967668;28;20491;-77
2022/05/16 06:22:50;;;;;;;10.40;5.60;;;16.20;99.90;;;;;;4967792;28;20464;-77
2022/05/16 06:25:34;;;;;;;7.60;5.37;;;16.30;99.90;;;;;;4966013;28;20481;-77
2022/05/16 06:28:04;;;;;;;6.20;5.30;;;16.30;99.90;;;;;;4966147;28;20456;-77
2022/05/16 06:30:35;;;;;;;10.27;6.00;;;16.30;99.90;;;;;;4966686;28;20467;-77
2022/05/16 06:33:02;;;;;;;10.03;6.33;;;16.40;99.90;;;;;;4968127;28;20476;-77
2022/05/16 06:35:29;;;;;;;10.87;6.93;;;16.40;99.90;;;;;;4966900;28;20496;-77
2022/05/16 06:37:56;;;;;;;7.97;5.80;;;16.40;99.90;;;;;;4967389;28;20468;-76
2022/05/16 06:40:23;;;;;;;8.50;5.70;;;16.40;99.90;;;;;;4966407;28;20467;-78
2022/05/16 06:42:51;;;;;;;8.30;5.33;;;16.50;99.90;;;;;;4948101;28;20996;-76
2022/05/16 06:45:18;;;;;;;10.27;6.37;;;16.50;99.90;;;;;;4948791;28;20464;-76
2022/05/16 06:47:46;;;;;;;8.57;6.20;;;16.60;99.90;;;;;;4955333;28;20449;-77
2022/05/16 06:50:13;;;;;;;10.23;6.13;;;16.60;99.90;;;;;;4968145;28;21097;-76
2022/05/16 06:52:40;;;;;;;8.97;6.50;;;16.70;99.90;;;;;;4967270;28;20540;-76
2022/05/16 06:55:08;;;;;;;10.47;7.23;;;16.70;99.90;;;;;;4967506;28;20916;-76
2022/05/16 06:57:36;;;;;;;12.20;7.23;;;16.70;99.90;;;;;;4969060;28;21387;-76
2022/05/16 07:00:06;;;;;;;8.93;6.97;;;16.90;99.90;;;;;;4969135;28;20460;-76
2022/05/16 07:02:33;;;;;;;13.43;7.83;;;16.90;99.90;;;;;;4968726;28;20547;-77
2022/05/16 07:05:03;;;;;;;7.20;6.20;;;16.90;99.90;;;;;;4969015;28;20460;-76
2022/05/16 07:07:30;;;;;;;13.23;7.50;;;17.00;99.90;;;;;;4969872;28;20459;-76
2022/05/16 07:09:57;;;;;;;12.67;7.60;;;17.10;99.90;;;;;;4968610;28;20496;-73
2022/05/16 07:12:24;;;;;;;11.40;6.50;;;17.20;99.90;;;;;;4966983;28;20591;-75
2022/05/16 07:14:50;;;;;;;9.70;5.30;;;17.30;99.90;;;;;;4966016;28;20971;-75
2022/05/16 07:17:17;;;;;;;9.67;5.60;;;17.50;99.90;;;;;;4966883;28;20579;-75
2022/05/16 07:19:46;;;;;;;9.80;5.80;;;17.70;99.90;;;;;;4970612;28;20476;-74
2022/05/16 07:22:17;;;;;;;8.33;5.53;;;17.80;99.90;;;;;;4971642;28;20484;-76
2022/05/16 07:24:45;;;;;;;8.20;5.13;;;18.00;99.90;;;;;;4971266;28;20547;-77
2022/05/16 07:29:58;;;;;;;6.33;5.10;;;18.10;99.90;;;;;;4970395;28;20442;-69
2022/05/16 07:32:34;;;;;;;6.23;5.50;;;18.10;99.90;;;;;;4970641;28;20571;-68
2022/05/16 07:35:02;;;;;;;7.57;4.43;;;18.20;99.90;;;;;;4969723;28;20466;-70
2022/05/16 07:37:31;;;;;;;6.03;4.50;;;18.40;99.90;;;;;;4969959;28;20500;-69
2022/05/16 07:39:58;;;;;;;5.67;4.33;;;18.50;99.90;;;;;;4970236;28;20467;-70
2022/05/16 07:42:25;;;;;;;6.73;4.07;;;18.60;99.90;;;;;;4970408;28;20554;-70
2022/05/16 07:44:52;;;;;;;5.40;4.17;;;18.80;99.90;;;;;;4967962;28;20502;-69
2022/05/16 07:47:19;;;;;;;8.47;4.27;;;18.90;99.90;;;;;;4969312;28;21105;-69
2022/05/16 07:49:46;;;;;;;4.83;3.83;;;19.00;99.90;;;;;;4969963;28;20539;-69
2022/05/16 07:52:12;;;;;;;7.30;4.30;;;19.10;99.90;;;;;;4969713;28;21048;-77
2022/05/16 07:54:41;;;;;;;7.37;4.10;;;19.30;99.90;;;;;;4969501;28;20456;-78
2022/05/16 07:57:07;;;;;;;4.87;4.30;;;19.40;99.90;;;;;;4970029;28;20506;-78
2022/05/16 07:59:34;;;;;;;9.53;4.83;;;19.50;99.90;;;;;;4970407;28;20550;-70
2022/05/16 08:02:01;;;;;;;4.03;3.37;;;19.50;99.90;;;;;;4970327;28;20523;-70
2022/05/16 08:04:28;;;;;;;5.10;4.17;;;19.60;99.90;;;;;;4969215;28;20558;-70
2022/05/16 08:06:55;;;;;;;6.60;3.87;;;19.80;99.90;;;;;;4970438;28;20467;-74
2022/05/16 08:12:10;;;;;;;5.27;3.80;;;19.90;99.90;;;;;;4970172;28;20459;-71
2022/05/16 08:14:38;;;;;;;4.90;3.40;;;20.00;99.90;;;;;;4969972;28;20546;-70
2022/05/16 08:17:05;;;;;;;5.07;3.53;;;20.10;99.90;;;;;;4970566;28;21182;-72
2022/05/16 08:19:35;;;;;;;5.10;3.60;;;20.20;99.90;;;;;;4970559;28;20460;-71
2022/05/16 08:22:02;;;;;;;4.07;3.67;;;20.40;99.90;;;;;;4970041;28;20488;-70
2022/05/16 08:24:28;;;;;;;7.07;3.80;;;20.60;99.90;;;;;;4969203;28;20460;-69
2022/05/16 08:26:55;;;;;;;6.70;3.70;;;20.80;99.90;;;;;;4968277;28;20449;-76
2022/05/16 08:29:23;;;;;;;3.50;3.20;;;21.00;99.90;;;;;;4967902;28;20467;-76
2022/05/16 08:31:50;;;;;;;4.90;3.03;;;21.20;99.90;;;;;;4968682;28;20483;-76
2022/05/16 08:34:19;;;;;;;5.43;3.57;;;21.40;99.90;;;;;;4967915;28;20465;-76
2022/05/16 08:42:14;;;;;;;4.33;3.03;;;22.10;99.90;;;;;;4968258;28;20494;-76
2022/05/16 08:44:51;;;;;;;5.97;3.67;;;22.20;99.90;;;;;;4967311;28;20465;-76
2022/05/16 08:47:31;;;;;;;4.83;3.20;;;22.40;99.90;;;;;;4966900;28;20512;-76
2022/05/16 08:50:02;;;;;;;3.80;3.30;;;22.70;99.90;;;;;;4967076;28;20468;-76
2022/05/16 08:52:37;;;;;;;4.67;3.73;;;22.90;99.90;;;;;;4966932;28;20480;-76
2022/05/16 08:55:08;;;;;;;10.10;4.27;;;23.10;99.90;;;;;;4967160;28;20534;-76
2022/05/16 08:57:40;;;;;;;4.03;3.50;;;23.20;99.90;;;;;;4967937;28;20504;-76
2022/05/16 09:00:12;;;;;;;4.57;3.27;;;23.30;99.90;;;;;;4968105;28;20444;-76
2022/05/16 09:02:42;;;;;;;4.47;3.53;;;23.40;99.90;;;;;;4968620;28;20823;-76
2022/05/16 09:05:16;;;;;;;6.13;3.00;;;23.70;99.90;;;;;;4968573;28;20433;-76
2022/05/16 09:07:46;;;;;;;4.80;3.40;;;23.70;99.90;;;;;;4968833;28;21017;-79
2022/05/16 09:10:16;;;;;;;4.93;3.50;;;23.70;99.90;;;;;;4969808;28;20488;-76
2022/05/16 09:12:51;;;;;;;5.13;3.53;;;23.70;99.90;;;;;;4969438;28;20460;-75
2022/05/16 09:15:30;;;;;;;5.90;3.33;;;23.70;99.90;;;;;;4968078;28;20451;-76
2022/05/16 09:18:22;;;;;;;5.10;3.50;;;23.70;99.90;;;;;;4969945;28;20984;-76
2022/05/16 09:20:59;;;;;;;6.93;3.50;;;23.60;99.90;;;;;;4968818;28;21052;-75
2022/05/16 09:23:45;;;;;;;5.90;4.27;;;23.60;99.90;;;;;;4969826;28;20468;-75
2022/05/16 09:26:23;;;;;;;8.97;3.47;;;23.70;99.90;;;;;;4969605;28;20495;-77
2022/05/16 09:28:56;;;;;;;6.73;3.67;;;23.70;99.90;;;;;;4969512;28;20831;-78
2022/05/16 09:31:31;;;;;;;4.57;3.73;;;23.80;99.90;;;;;;4970278;28;20480;-76
2022/05/16 09:34:00;;;;;;;5.50;3.63;;;24.00;99.90;;;;;;4969850;28;20453;-77
2022/05/16 09:36:32;;;;;;;6.67;3.70;;;24.30;99.90;;;;;;4968959;28;20507;-77
2022/05/16 09:38:59;;;;;;;5.00;3.70;;;24.40;99.90;;;;;;4969607;28;20437;-77
2022/05/16 09:41:40;;;;;;;5.20;4.03;;;24.30;99.90;;;;;;4968252;28;20563;-76
2022/05/16 09:44:12;;;;;;;7.00;4.13;;;24.50;99.90;;;;;;4968282;28;20945;-77
2022/05/16 09:46:42;;;;;;;4.30;3.37;;;24.90;99.90;;;;;;4968621;28;20469;-77
2022/05/16 09:49:19;;;;;;;8.97;4.17;;;25.00;99.90;;;;;;4968671;28;20473;-77
2022/05/16 09:51:49;;;;;;;7.73;4.07;;;25.10;99.90;;;;;;4968330;28;20555;-77
2022/05/16 09:54:24;;;;;;;4.73;3.50;;;25.30;99.90;;;;;;4967996;28;20456;-77
2022/05/16 09:57:12;;;;;;;6.60;3.97;;;25.50;99.90;;;;;;4968345;28;20475;-76
2022/05/16 09:59:43;;;;;;;6.00;4.17;;;25.70;99.90;;;;;;4968484;28;20471;-76
2022/05/16 10:02:16;;;;;;;6.37;4.63;;;25.70;99.90;;;;;;4967880;28;20496;-77
2022/05/16 10:04:46;;;;;;;6.53;4.73;;;25.30;99.90;;;;;;4967453;28;20933;-77
2022/05/16 10:07:14;;;;;;;7.07;4.77;;;25.10;99.90;;;;;;4968403;28;20539;-76
2022/05/16 10:09:45;;;;;;;8.27;4.77;;;25.10;99.90;;;;;;4968150;28;20457;-77
2022/05/16 10:12:15;;;;;;;8.50;4.77;;;25.00;99.90;;;;;;4967882;28;20484;-77
2022/05/16 10:14:42;;;;;;;8.50;5.23;;;25.10;99.90;;;;;;4967636;28;20567;-77
2022/05/16 10:17:14;;;;;;;7.10;4.70;;;25.00;99.90;;;;;;4968200;28;20501;-76
2022/05/16 10:19:43;;;;;;;7.67;4.97;;;25.00;99.90;;;;;;4968026;28;20528;-77
2022/05/16 10:22:15;;;;;;;8.17;4.87;;;25.00;99.90;;;;;;4966867;28;21219;-76
2022/05/16 10:24:45;;;;;;;6.10;5.17;;;24.90;99.90;;;;;;4967198;28;20548;-77
2022/05/16 10:27:14;;;;;;;9.80;5.40;;;24.80;99.90;;;;;;4967397;28;20983;-77
2022/05/16 10:29:47;;;;;;;13.37;5.27;;;24.80;99.90;;;;;;4967580;28;20467;-77
2022/05/16 10:35:13;;;;;;;6.50;5.17;;;24.90;99.90;;;;;;4965247;28;20936;-71
2022/05/16 10:37:44;;;;;;;10.57;5.07;;;25.00;99.90;;;;;;4966086;28;20498;-71
2022/05/16 10:40:16;;;;;;;7.50;5.10;;;25.10;99.90;;;;;;4965856;28;20465;-71
2022/05/16 10:42:50;;;;;;;7.43;5.40;;;25.10;99.90;;;;;;4965982;28;20560;-71
2022/05/16 10:45:20;;;;;;;7.50;5.07;;;24.90;99.90;;;;;;4965962;28;20445;-76
2022/05/16 10:47:53;;;;;;;12.47;4.37;;;25.00;99.90;;;;;;4966966;28;20576;-76
2022/05/16 10:50:24;;;;;;;6.57;5.10;;;25.10;99.90;;;;;;4967305;28;20448;-76
2022/05/16 10:52:56;;;;;;;10.73;4.67;;;25.10;99.90;;;;;;4966935;28;20456;-76
2022/05/16 10:55:23;;;;;;;8.83;4.90;;;25.00;99.90;;;;;;4966361;28;20468;-76
2022/05/16 10:58:19;;;;;;;8.63;4.60;;;25.00;99.90;;;;;;4967350;28;20840;-77
2022/05/16 11:00:51;;;;;;;7.07;4.63;;;24.90;99.90;;;;;;4966689;28;20492;-76
2022/05/16 11:03:44;;;;;;;10.10;5.07;;;24.60;99.90;;;;;;4967167;28;20492;-76
2022/05/16 11:06:30;;;;;;;11.40;4.60;;;24.40;99.90;;;;;;4967265;28;20468;-76
2022/05/16 11:09:05;;;;;;;8.20;3.87;;;24.20;99.90;;;;;;4967076;28;20452;-76
2022/05/16 11:11:41;;;;;;;10.10;4.00;;;24.10;99.90;;;;;;4967292;28;20595;-76
2022/05/16 11:14:16;;;;;;;9.53;4.03;;;24.10;99.90;;;;;;4965440;28;20460;-76
2022/05/16 11:16:44;;;;;;;13.20;3.47;;;24.00;99.90;;;;;;4966857;28;20519;-76
2022/05/16 11:19:27;;;;;;;9.63;3.17;;;24.00;99.90;;;;;;4966676;28;20476;-76
2022/05/16 11:22:01;;;;;;;5.23;3.17;;;24.00;99.90;;;;;;4966128;28;20559;-76
2022/05/16 11:24:37;;;;;;;4.63;2.80;;;24.00;99.90;;;;;;4965032;28;20945;-72
2022/05/16 11:27:14;;;;;;;9.00;3.00;;;23.90;99.90;;;;;;4965406;28;20434;-72
2022/05/16 11:29:52;;;;;;;8.93;2.70;;;23.80;99.90;;;;;;4965515;28;20466;-72
2022/05/16 11:32:30;;;;;;;8.47;2.50;;;23.60;99.90;;;;;;4965388;28;20840;-71
2022/05/16 11:35:05;;;;;;;6.33;2.70;;;23.50;99.90;;;;;;4965145;28;20467;-72
2022/05/16 11:38:04;;;;;;;5.03;2.80;;;23.50;99.90;;;;;;4965510;28;20496;-72
2022/05/16 11:40:37;;;;;;;7.47;2.77;;;23.40;99.90;;;;;;4966700;28;20460;-73
2022/05/16 11:43:14;;;;;;;14.77;2.83;;;23.30;99.90;;;;;;4966173;28;20835;-72
2022/05/16 11:46:08;;;;;;;9.70;2.90;;;23.20;99.90;;;;;;4966002;28;20483;-72
2022/05/16 11:48:45;;;;;;;5.43;2.13;;;23.20;99.90;;;;;;4966379;28;20448;-72
2022/05/16 11:51:22;;;;;;;10.60;2.77;;;23.00;99.90;;;;;;4966097;28;20480;-72
2022/05/16 11:53:51;;;;;;;6.77;2.20;;;23.00;99.90;;;;;;4966590;28;20567;-73
2022/05/16 12:02:19;;;;;;;9.33;2.30;;;22.90;99.90;;;;;;4966871;28;20555;-75
2022/05/16 12:04:50;;;;;;;5.77;2.50;;;22.80;99.90;;;;;;4966341;28;21103;-79
2022/05/16 12:07:29;;;;;;;6.50;2.60;;;22.80;99.90;;;;;;4971229;28;20456;-77
2022/05/16 12:10:02;;;;;;;4.37;2.53;;;22.80;99.90;;;;;;4970282;28;20463;-75
2022/05/16 12:12:37;;;;;;;7.33;3.20;;;22.70;99.90;;;;;;4970835;28;20584;-76
2022/05/16 12:15:30;;;;;;;6.93;2.30;;;22.50;99.90;;;;;;4970537;28;20451;-76
2022/05/16 12:18:00;;;;;;;4.73;1.80;;;22.40;99.90;;;;;;4968090;28;20492;-75
2022/05/16 12:20:59;;;;;;;4.53;2.20;;;22.30;99.90;;;;;;4969697;28;20451;-75
2022/05/16 12:23:56;;;;;;;11.20;2.70;;;22.20;99.90;;;;;;4970043;28;20484;-75
2022/05/16 12:26:58;;;;;;;8.57;2.77;;;22.10;99.90;;;;;;4969982;28;20567;-75
2022/05/16 12:29:32;;;;;;;12.07;2.40;;;22.00;99.90;;;;;;4970040;28;21054;-75
2022/05/16 12:31:59;;;;;;;10.77;2.20;;;22.00;99.90;;;;;;4969990;28;20564;-75
2022/05/16 12:34:45;;;;;;;9.27;2.77;;;21.90;99.90;;;;;;4969251;28;20461;-75
2022/05/16 12:37:15;;;;;;;13.00;2.40;;;21.80;99.90;;;;;;4968486;28;20492;-75
2022/05/16 12:39:51;;;;;;;7.93;1.90;;;21.70;99.90;;;;;;4969627;28;20464;-76
2022/05/16 12:42:46;;;;;;;9.80;1.90;;;21.60;99.90;;;;;;4969618;28;20515;-76
2022/05/16 12:45:45;;;;;;;6.80;1.77;;;21.60;99.90;;;;;;4969614;28;20547;-76
2022/05/16 12:48:45;;;;;;;8.70;2.07;;;21.60;99.90;;;;;;4970490;28;20564;-76
2022/05/16 12:51:29;;;;;;;12.33;2.30;;;21.50;99.90;;;;;;4946906;28;20499;-76
2022/05/16 12:54:43;;;;;;;14.23;3.30;;;21.50;99.90;;;;;;4969994;28;20536;-76
2022/05/16 12:57:51;;;;;;;12.20;3.33;;;21.40;99.90;;;;;;4964485;28;20499;-76
2022/05/16 13:00:21;;;;;;;5.53;2.83;;;21.20;99.90;;;;;;4968758;28;20453;-76
2022/05/16 13:02:55;;;;;;;7.50;2.47;;;21.10;99.90;;;;;;4969332;28;20449;-77
2022/05/16 13:05:35;;;;;;;4.47;1.90;;;20.90;99.90;;;;;;4968317;28;20448;-76
2022/05/16 13:08:15;;;;;;;7.73;2.50;;;20.60;99.90;;;;;;4968791;28;20459;-76
2022/05/16 13:10:52;;;;;;;4.03;2.00;;;20.30;99.90;;;;;;4968970;28;20520;-77
2022/05/16 13:13:37;;;;;;;6.03;2.10;;;20.10;99.90;;;;;;4969023;28;20471;-77
2022/05/16 13:16:12;;;;;;;3.27;1.70;;;19.90;99.90;;;;;;4971236;28;20447;-77
2022/05/16 13:18:45;;;;;;;4.60;2.53;;;19.70;99.90;;;;;;4970195;28;20579;-76
2022/05/16 13:21:15;;;;;;;4.20;2.13;;;19.50;99.90;;;;;;4969714;28;20484;-76
2022/05/16 13:23:42;;;;;;;5.07;2.67;;;19.40;99.90;;;;;;4968853;28;20456;-75
2022/05/16 13:31:42;;;;;;;7.43;3.10;;;19.20;99.90;;;;;;4968471;28;20568;-76
2022/05/16 13:34:12;;;;;;;4.50;3.00;;;19.20;99.90;;;;;;4968023;28;20467;-76
2022/05/16 13:36:43;;;;;;;6.83;3.33;;;19.30;99.90;;;;;;4968846;28;20457;-77
2022/05/16 13:39:16;;;;;;;5.30;3.20;;;19.30;99.90;;;;;;4969455;28;20504;-78
2022/05/16 13:41:45;;;;;;;5.33;3.10;;;19.30;99.90;;;;;;4968340;28;20485;-71
2022/05/16 13:44:14;;;;;;;7.77;3.30;;;19.40;99.90;;;;;;4968223;28;20492;-72
2022/05/16 13:46:41;;;;;;;7.80;3.20;;;19.30;99.90;;;;;;4968751;28;20468;-72
2022/05/16 13:49:10;;;;;;;7.20;3.30;;;19.30;99.90;;;;;;4968867;28;20553;-72
2022/05/16 13:51:44;;;;;;;6.00;3.37;;;19.30;99.90;;;;;;4968181;28;20476;-71
2022/05/16 13:54:16;;;;;;;9.87;2.87;;;19.40;99.90;;;;;;4967559;28;20447;-72
2022/05/16 13:56:48;;;;;;;7.43;2.70;;;19.60;99.90;;;;;;4967946;28;20483;-70
2022/05/16 13:59:21;;;;;;;11.43;3.27;;;19.60;99.90;;;;;;4968020;28;20485;-70
2022/05/16 14:01:59;;;;;;;6.83;2.67;;;19.80;99.90;;;;;;4967496;28;20591;-71
2022/05/16 14:04:30;;;;;;;6.13;2.80;;;19.80;99.90;;;;;;4966847;28;20452;-70
2022/05/16 14:07:03;;;;;;;3.70;2.17;;;19.90;99.90;;;;;;4967658;28;20507;-72
2022/05/16 14:09:37;;;;;;;8.00;2.43;;;19.90;99.90;;;;;;4967984;28;20445;-71
2022/05/16 14:12:10;;;;;;;3.60;2.47;;;19.90;99.90;;;;;;4967613;28;20481;-72
2022/05/16 14:14:41;;;;;;;11.13;2.73;;;20.00;99.90;;;;;;4966677;28;20811;-69
2022/05/16 14:17:08;;;;;;;9.93;2.70;;;20.00;99.90;;;;;;4967382;28;20444;-69
2022/05/16 14:19:39;;;;;;;9.97;2.57;;;20.00;99.90;;;;;;4966904;28;20448;-70
2022/05/16 14:22:13;;;;;;;6.60;2.20;;;20.00;99.90;;;;;;4967288;28;20902;-71
2022/05/16 14:24:49;;;;;;;7.83;3.10;;;20.00;99.90;;;;;;4966245;28;20458;-69
2022/05/16 14:27:25;;;;;;;7.13;3.37;;;20.10;99.90;;;;;;4967249;28;20440;-68
2022/05/16 14:30:02;;;;;;;6.33;3.00;;;20.20;99.90;;;;;;4966824;28;20442;-67
2022/05/16 14:32:32;;;;;;;5.60;3.00;;;20.30;99.90;;;;;;4967386;28;20559;-66
2022/05/16 14:35:02;;;;;;;12.60;3.40;;;20.40;99.90;;;;;;4966375;28;20531;-67
2022/05/16 14:37:33;;;;;;;11.50;3.20;;;20.50;99.90;;;;;;4966640;28;20460;-67
2022/05/16 14:40:14;;;;;;;8.50;3.03;;;20.60;99.90;;;;;;4966690;28;20968;-67
2022/05/16 14:42:44;;;;;;;4.23;2.90;;;20.70;99.90;;;;;;4967329;28;20527;-66
2022/05/16 14:46:42;;;;;;;7.67;3.30;;;20.60;99.90;;;;;;4966849;28;20579;-66
2022/05/16 14:48:10;;;;;;;6.50;2.70;;;20.60;99.90;;;;;;4964891;28;21030;-66
2022/05/16 14:50:38;;;;;;;6.47;3.50;;;20.70;99.90;;;;;;4966546;28;20517;-66
2022/05/16 14:53:13;;;;;;;13.97;3.40;;;20.80;99.90;;;;;;4971065;28;20883;-78
2022/05/16 14:55:42;;;;;;;13.80;4.00;;;20.90;99.90;;;;;;4969351;28;20460;-77
2022/05/16 14:58:10;;;;;;;8.50;3.33;;;21.00;99.90;;;;;;4968377;28;20858;-77
2022/05/16 15:06:08;;;;;;;4.13;3.00;;;21.30;99.90;;;;;;4969431;28;20479;-77
2022/05/16 15:08:40;;;;;;;8.60;3.60;;;21.50;99.90;;;;;;4970260;28;20457;-77
2022/05/16 15:11:08;;;;;;;6.60;3.63;;;21.60;99.90;;;;;;4968515;28;20559;-76
2022/05/16 15:13:35;;;;;;;5.30;3.87;;;21.70;99.90;;;;;;4969401;28;20467;-76
2022/05/16 15:16:03;;;;;;;5.37;2.80;;;21.90;99.90;;;;;;4969939;28;20528;-77
2022/05/16 15:18:30;;;;;;;5.23;3.80;;;22.00;99.90;;;;;;4971057;28;20495;-77
2022/05/16 15:20:59;;;;;;;6.17;3.73;;;21.90;99.90;;;;;;4969918;28;20540;-76
2022/05/16 15:23:28;;;;;;;7.47;3.57;;;21.80;99.90;;;;;;4970090;28;21375;-76
2022/05/16 15:25:55;;;;;;;4.97;3.60;;;21.80;99.90;;;;;;4969493;28;20535;-78
2022/05/16 15:28:22;;;;;;;6.50;4.20;;;21.90;99.90;;;;;;4970158;28;20548;-78
2022/05/16 15:30:49;;;;;;;6.37;3.70;;;22.00;99.90;;;;;;4969938;28;20472;-78
2022/05/16 15:33:18;;;;;;;4.53;3.50;;;22.00;99.90;;;;;;4969965;28;20495;-77
2022/05/16 15:35:49;;;;;;;8.37;4.30;;;22.00;99.90;;;;;;4968949;28;20470;-76
2022/05/16 15:38:16;;;;;;;7.07;4.10;;;22.00;99.90;;;;;;4969281;28;20541;-77
2022/05/16 15:40:44;;;;;;;7.80;4.90;;;21.90;99.90;;;;;;4973220;28;20564;-77
2022/05/16 15:43:12;;;;;;;8.13;3.80;;;21.90;99.90;;;;;;4974286;28;20456;-77
2022/05/16 15:45:39;;;;;;;7.03;3.93;;;21.80;99.90;;;;;;4973078;28;20476;-78
2022/05/16 15:48:09;;;;;;;9.30;3.93;;;21.80;99.90;;;;;;4973265;28;20472;-76
2022/05/16 15:50:38;;;;;;;4.67;4.03;;;21.70;99.90;;;;;;4973317;28;20507;-78
2022/05/16 15:53:05;;;;;;;6.13;3.87;;;21.70;99.90;;;;;;4972491;28;21452;-77
2022/05/16 15:55:33;;;;;;;11.97;4.10;;;21.70;99.90;;;;;;4972592;28;20471;-77
2022/05/16 15:58:00;;;;;;;5.33;3.40;;;21.70;99.90;;;;;;4971606;28;20566;-78
2022/05/16 16:00:27;;;;;;;8.33;3.33;;;21.70;99.90;;;;;;4973287;28;20542;-78
2022/05/16 16:02:57;;;;;;;6.43;2.90;;;21.70;99.90;;;;;;4974209;28;20871;-78
2022/05/16 16:11:02;;;;;;;4.13;3.03;;;21.70;99.90;;;;;;4961700;28;20468;-78
2022/05/16 16:13:30;;;;;;;5.70;3.40;;;21.70;99.90;;;;;;4973174;28;20515;-76
2022/05/16 16:15:59;;;;;;;6.70;3.20;;;21.80;99.90;;;;;;4973141;28;20599;-78
2022/05/16 16:18:27;;;;;;;5.63;3.30;;;21.90;99.90;;;;;;4972850;28;20655;-77
2022/05/16 16:20:54;;;;;;;4.53;3.20;;;21.90;99.90;;;;;;4973727;28;20483;-76
2022/05/16 16:23:24;;;;;;;3.87;2.93;;;21.90;99.90;;;;;;4973350;28;20453;-77
2022/05/16 16:25:53;;;;;;;4.87;2.47;;;21.80;99.90;;;;;;4971625;28;20460;-78
2022/05/16 16:28:20;;;;;;;5.10;2.40;;;21.90;99.90;;;;;;4971998;28;20459;-77
2022/05/16 16:30:50;;;;;;;6.60;2.87;;;22.00;99.90;;;;;;4972285;28;21032;-77
2022/05/16 16:33:19;;;;;;;3.43;2.60;;;22.00;99.90;;;;;;4973197;28;20449;-77
2022/05/16 16:35:46;;;;;;;5.50;2.43;;;21.90;99.90;;;;;;4971876;28;20478;-77
2022/05/16 16:38:15;;;;;;;4.30;2.13;;;21.80;99.90;;;;;;4971852;28;20587;-78
2022/05/16 16:40:45;;;;;;;2.93;2.10;;;21.70;99.90;;;;;;4972033;28;20575;-77
2022/05/16 16:43:28;;;;;;;9.53;2.57;;;21.70;99.90;;;;;;4971750;28;20543;-77
2022/05/16 16:45:56;;;;;;;3.73;2.50;;;21.60;99.90;;;;;;4971077;28;20445;-77
2022/05/16 16:48:23;;;;;;;2.93;2.03;;;21.60;99.90;;;;;;4971482;28;20560;-77
2022/05/16 16:50:51;;;;;;;4.70;2.00;;;21.40;99.90;;;;;;4970869;28;20512;-76
2022/05/16 16:58:49;;;;;;;6.00;2.40;;;21.30;99.90;;;;;;4970382;28;20499;-78
2022/05/16 17:01:16;;;;;;;7.07;2.57;;;21.30;99.90;;;;;;4970301;28;20492;-78
2022/05/16 17:03:43;;;;;;;3.50;2.80;;;21.30;99.90;;;;;;4969875;28;20571;-77
2022/05/16 17:06:10;;;;;;;6.53;2.80;;;21.20;99.90;;;;;;4969303;28;20541;-77
2022/05/16 17:08:37;;;;;;;4.43;2.80;;;21.40;99.90;;;;;;4970150;28;20272;-77
2022/05/16 17:11:07;;;;;;;3.83;2.53;;;21.30;99.90;;;;;;4970435;28;20480;-77
2022/05/16 17:13:38;;;;;;;4.80;2.53;;;21.20;99.90;;;;;;4968736;28;20844;-77
2022/05/16 17:16:07;;;;;;;6.30;2.63;;;21.10;99.90;;;;;;4967962;28;20952;-78
2022/05/16 17:18:35;;;;;;;4.13;2.03;;;21.10;99.90;;;;;;4968753;28;20496;-77
2022/05/16 17:21:04;;;;;;;3.70;2.10;;;21.00;99.90;;;;;;4973049;28;20508;-78
2022/05/16 17:23:31;;;;;;;4.33;2.20;;;21.00;99.90;;;;;;4970570;28;20479;-78
2022/05/16 17:25:59;;;;;;;5.07;2.67;;;21.00;99.90;;;;;;4969321;28;20471;-77
2022/05/16 17:28:28;;;;;;;5.10;2.20;;;20.90;99.90;;;;;;4968548;28;20488;-77
2022/05/16 17:30:57;;;;;;;6.00;2.47;;;21.00;99.90;;;;;;4969024;28;20543;-77
2022/05/16 17:33:24;;;;;;;4.63;2.50;;;21.10;99.90;;;;;;4969191;28;20478;-77
2022/05/16 17:35:51;;;;;;;3.60;2.30;;;21.00;99.90;;;;;;4967857;28;20563;-77
2022/05/16 17:38:18;;;;;;;4.20;2.47;;;21.00;99.90;;;;;;4968431;28;20464;-77
2022/05/16 17:40:45;;;;;;;2.60;2.00;;;21.00;99.90;;;;;;4968483;28;20592;-77
2022/05/16 17:43:13;;;;;;;2.93;2.60;;;21.00;99.90;;;;;;4968015;28;20467;-77
2022/05/16 17:45:42;;;;;;;5.00;2.70;;;20.90;99.90;;;;;;4966594;28;20464;-78
2022/05/16 17:48:10;;;;;;;6.27;2.90;;;20.90;99.90;;;;;;4971666;28;20449;-77
2022/05/16 17:50:40;;;;;;;4.63;2.63;;;20.90;99.90;;;;;;4971807;28;20540;-77
2022/05/16 17:53:07;;;;;;;3.10;2.33;;;20.80;99.90;;;;;;4967543;28;20466;-76
2022/05/16 17:55:34;;;;;;;2.87;1.77;;;20.80;99.90;;;;;;4968253;28;20464;-76
2022/05/16 17:58:05;;;;;;;4.27;2.40;;;20.80;99.90;;;;;;4967282;28;21029;-77